Latest Coastal Weather Observations for Pirlangimpi (Garden Point)

IDD60701

Issued at 11:21 am CST Friday 9 December 2016 (issued every 10 minutes, with the page automatically refreshed every 10 minutes)

About coastal observations | Map of coastal stations | Coastal observations for NT | Marine services | Other Formats
Station Details ID: 014142 Name: PIRLANGIMPI AIRPORT Lat: -11.40 Lon: 130.42 Height: 18.3 m
Data from the previous 72 hours. | See also: Recent months at Pirlangimpi (Garden Point)
Date/Time
CST
Temp
°C
Wind Pressure Rain since
9am
mm
Weather Cloud Vis
km
Sea
Height
m
Swell
Dir  Spd
kts
Gust
kts
hPa Trend Height
m
Period
s
Dir
09/11:00am 32.4 NW 2 3 1008.6 - 0.0 - - - - - - -
09/10:30am 32.0 ENE 1 2 1008.7 - 0.0 - - - - - - -
09/10:00am 33.1 E 3 5 1008.5 - 0.0 - - - - - - -
09/09:30am 31.9 NNE 2 5 1008.5 - 0.0 - - - - - - -
09/09:00am 31.3 N 3 4 1008.4 - 10.2 - - - - - - -
09/08:30am 30.7 NNE 2 5 1008.5 - 10.2 - - - - - - -
09/08:00am 29.7 NE 2 3 1008.3 - 10.2 - - - - - - -
09/07:30am 27.9 CALM 0 1 1008.0 - 10.2 - - - - - - -
09/07:00am 26.2 NE 2 3 1007.8 - 10.2 - - - - - - -
09/06:30am 25.5 NE 1 2 1007.3 - 10.2 - - - - - - -
09/06:00am 25.4 CALM 0 0 1007.0 - 10.2 - - - - - - -
09/05:30am 25.3 CALM 0 0 1006.7 - 10.2 - - - - - - -
09/05:00am 25.5 CALM 0 0 1006.3 - 10.2 - - - - - - -
09/04:30am 25.5 CALM 0 0 1006.1 - 10.2 - - - - - - -
09/04:00am 25.5 CALM 0 0 1006.2 - 10.2 - - - - - - -
09/03:30am 25.9 CALM 0 0 1006.1 - 10.2 - - - - - - -
09/03:00am 26.0 NNE 1 3 1006.3 - 10.2 - - - - - - -
09/02:30am 25.9 CALM 0 0 1006.4 - 10.2 - - - - - - -
09/02:00am 26.3 N 2 3 1006.3 - 10.2 - - - - - - -
09/01:30am 26.0 ENE 2 2 1006.8 - 10.2 - - - - - - -
09/01:00am 25.9 NE 2 3 1006.9 - 10.2 - - - - - - -
09/12:30am 25.9 NNE 1 3 1007.0 - 10.2 - - - - - - -
09/12:00am 25.7 NE 2 3 1007.2 - 10.2 - - - - - - -
 
Date/Time
CST
Temp
°C
Wind Pressure Rain since
9am
mm
Weather Cloud Vis
km
Sea
Height
m
Swell
Dir  Spd
kts
Gust
kts
hPa Trend Height
m
Period
s
Dir
08/11:30pm 25.8 NNE 1 2 1007.0 - 10.2 - - - - - - -
08/11:00pm 25.9 CALM 0 0 1007.0 - 10.2 - - - - - - -
08/10:30pm 26.2 CALM 0 0 1007.0 - 10.2 - - - - - - -
08/10:00pm 26.3 CALM 0 1 1006.9 - 10.2 - - - - - - -
08/09:30pm 26.1 NE 1 2 1006.8 - 10.2 - - - - - - -
08/09:00pm 26.1 CALM 0 3 1006.7 - 10.2 - - - - - - -
08/08:30pm 26.4 CALM 0 0 1006.4 - 10.2 - - - - - - -
08/08:00pm 26.7 NNE 1 2 1006.0 - 10.2 - - - - - - -
08/07:30pm 26.9 NNE 1 2 1005.7 - 10.2 - - - - - - -
08/07:00pm 27.4 NNE 1 2 1005.3 - 10.2 - - - - - - -
08/06:30pm 27.9 NNE 2 3 1004.9 - 10.2 - - - - - - -
08/06:00pm 28.2 N 1 3 1005.0 - 10.2 - - - - - - -
08/05:30pm 27.5 NE 5 11 1004.8 - 10.2 - - - - - - -
08/05:00pm 31.4 SW 3 6 1005.0 - 10.2 - - - - - - -
08/04:30pm 31.6 W 2 4 1004.7 - 10.2 - - - - - - -
08/04:00pm 31.4 NW 4 7 1004.4 - 10.2 - - - - - - -
08/03:30pm 30.3 W 4 8 1004.9 - 10.2 - - - - - - -
08/03:00pm 30.4 NW 3 6 1005.1 - 10.0 Recent precip. - - - - - -
08/02:30pm 25.2 SSW 5 10 1005.6 - 10.0 - - - - - - -
08/02:17pm 28.1 SSW 5 11 1006.1 - 1.4 - - - - - - -
08/02:00pm 33.1 WNW 4 9 1005.3 - 0.2 - - - - - - -
08/01:30pm 33.3 WNW 5 9 1005.6 - 0.2 - - - - - - -
08/01:00pm 33.0 NW 5 8 1006.0 - 0.2 - - - - - - -
08/12:30pm 32.8 NW 4 7 1006.5 - 0.2 - - - - - - -
08/12:00pm 32.1 NW 3 7 1007.0 - 0.2 - - - - - - -
08/11:30am 32.7 NW 2 5 1007.4 - 0.2 - - - - - - -
08/11:00am 32.1 WSW 2 4 1007.9 - 0.2 - - - - - - -
08/10:30am 33.2 ENE 3 5 1008.4 - 0.2 - - - - - - -
08/10:00am 32.4 ESE 2 5 1008.5 - 0.2 - - - - - - -
08/09:30am 30.9 NE 1 5 1008.5 - 0.0 - - - - - - -
08/09:00am 30.9 ENE 1 3 1008.4 - 5.2 - - - - - - -
08/08:30am 29.5 N 2 6 1008.3 - 5.2 - - - - - - -
08/08:00am 28.2 CALM 0 0 1008.0 - 5.2 - - - - - - -
08/07:30am 26.6 NNW 2 3 1007.9 - 5.2 - - - - - - -
08/07:00am 25.5 NE 2 3 1007.7 - 5.2 - - - - - - -
08/06:30am 25.4 CALM 0 1 1007.4 - 5.2 - - - - - - -
08/06:00am 25.4 ENE 3 8 1007.3 - 5.0 - - - - - - -
08/05:30am 25.5 N 4 7 1006.3 - 5.0 - - - - - - -
08/05:00am 25.3 CALM 0 2 1006.3 - 5.0 - - - - - - -
08/04:30am 25.2 NE 1 3 1006.0 - 5.0 - - - - - - -
08/04:00am 25.4 ENE 1 2 1005.9 - 5.0 - - - - - - -
08/03:30am 25.3 CALM 0 0 1006.0 - 5.0 - - - - - - -
08/03:00am 25.2 CALM 0 0 1006.0 - 5.0 - - - - - - -
08/02:30am 25.1 CALM 0 0 1006.0 - 5.0 - - - - - - -
08/02:00am 25.3 CALM 0 0 1006.3 - 5.0 - - - - - - -
08/01:30am 25.4 CALM 0 0 1006.7 - 5.0 - - - - - - -
08/01:00am 25.5 CALM 0 0 1007.1 - 5.0 - - - - - - -
08/12:30am 25.5 CALM 0 0 1007.5 - 5.0 - - - - - - -
08/12:00am 25.6 NE 1 3 1007.8 - 5.0 - - - - - - -
 
Date/Time
CST
Temp
°C
Wind Pressure Rain since
9am
mm
Weather Cloud Vis
km
Sea
Height
m
Swell
Dir  Spd
kts
Gust
kts
hPa Trend Height
m
Period
s
Dir
07/11:30pm 25.6 NE 1 2 1008.0 - 5.0 - - - - - - -
07/11:00pm 25.6 NE 2 2 1008.0 - 5.0 - - - - - - -
07/10:30pm 25.6 CALM 0 2 1008.2 - 5.0 - - - - - - -
07/10:00pm 25.4 CALM 0 0 1008.0 - 5.0 - - - - - - -
07/09:30pm 25.4 NE 1 2 1007.7 - 5.0 - - - - - - -
07/09:00pm 25.4 NNE 2 4 1007.5 - 5.0 Rain - - - - - -
07/08:30pm 25.6 NNE 1 2 1007.2 - 4.8 - - - - - - -
07/08:00pm 25.7 NE 1 3 1006.9 - 4.8 - - - - - - -
07/07:30pm 25.9 NE 2 3 1006.8 - 4.8 - - - - - - -
07/07:00pm 26.1 NE 2 3 1006.7 - 4.8 - - - - - - -
07/06:30pm 26.2 N 1 2 1006.7 - 4.8 - - - - - - -
07/06:00pm 25.7 NNW 1 3 1006.4 - 4.8 Recent precip. - - - - - -
07/05:30pm 26.8 SSW 5 10 1006.3 - 4.6 - - - - - - -
07/05:00pm 29.4 NE 1 3 1005.6 - 2.8 - - - - - - -
07/04:30pm 30.5 NW 3 7 1005.7 - 2.8 - - - - - - -
07/04:00pm 31.6 WNW 3 6 1005.5 - 2.8 - - - - - - -
07/03:30pm 31.3 WNW 3 5 1005.5 - 2.6 - - - - - - -
07/03:00pm 28.9 NNW 4 6 1005.9 - 2.6 Recent precip. - - - - - -
07/02:30pm 29.8 N 3 8 1006.5 - 1.2 - - - - - - -
07/02:00pm 33.9 NW 7 12 1006.5 - 0.2 - - - - - - -
07/01:30pm 34.1 SW 3 5 1006.8 - 0.2 - - - - - - -
07/01:00pm 33.6 SSW 4 7 1007.3 - 0.2 - - - - - - -
07/12:30pm 33.4 WSW 3 5 1007.7 - 0.2 - - - - - - -
07/12:00pm 32.6 SSW 4 6 1008.2 - 0.2 - - - - - - -
07/11:30am 31.7 SW 4 6 1008.6 - 0.2 - - - - - - -
07/11:00am 32.3 SW 3 6 1009.0 - 0.2 - - - - - - -
07/10:30am 32.0 SSW 2 4 1009.3 - 0.2 - - - - - - -
07/10:00am 31.3 SE 1 3 1009.3 - 0.0 - - - - - - -
07/09:30am 30.5 SSE 3 4 1009.6 - 0.0 - - - - - - -
07/09:00am 30.1 ESE 3 4 1009.9 - - - - - - - - -
07/08:30am 29.3 ESE 2 4 1010.1 - - - - - - - - -
07/08:00am 28.2 E 1 2 1009.8 - - - - - - - - -
07/07:30am 26.9 CALM 0 1 1009.5 - - - - - - - - -
07/07:00am 25.8 CALM 0 1 1009.3 - - - - - - - - -
07/06:30am 24.9 NE 2 2 1008.9 - - - - - - - - -
07/06:00am 24.9 CALM 0 0 1008.6 - - - - - - - - -
07/05:30am 25.1 CALM 0 0 1008.2 - - - - - - - - -
07/05:00am 25.0 NE 3 3 1008.2 - - - - - - - - -
07/04:30am 25.2 CALM 0 0 1007.9 - - - - - - - - -
07/04:00am 25.2 CALM 0 0 1007.5 - - - - - - - - -
07/03:30am 25.2 CALM 0 0 1007.6 - - - - - - - - -
07/03:00am 25.4 CALM 0 1 1007.7 - 0.0 - - - - - - -
07/02:30am 25.4 CALM 0 0 1007.7 - - - - - - - - -
07/02:00am 25.5 CALM 0 0 1007.9 - - - - - - - - -
07/01:30am 25.7 CALM 0 0 1008.3 - - - - - - - - -
07/01:00am 25.8 CALM 0 0 1008.6 - - - - - - - - -
07/12:30am 26.0 CALM 0 0 1008.8 - - - - - - - - -
07/12:00am 26.0 CALM 0 0 1009.1 - - - - - - - - -
 
Date/Time
CST
Temp
°C
Wind Pressure Rain since
9am
mm
Weather Cloud Vis
km
Sea
Height
m
Swell
Dir  Spd
kts
Gust
kts
hPa Trend Height
m
Period
s
Dir
06/11:30pm 25.8 CALM 0 0 1009.3 - - - - - - - - -
06/11:00pm 26.0 CALM 0 1 1009.3 - - - - - - - - -
06/10:30pm 26.0 CALM 0 0 1009.5 - - - - - - - - -
06/10:00pm 25.6 SW 1 2 1009.5 - - - - - - - - -
06/09:30pm 25.6 CALM 0 0 1009.2 - - - - - - - - -
06/09:00pm 25.5 NE 1 3 1008.9 - - - - - - - - -
06/08:30pm 25.4 CALM 0 0 1008.4 - - - - - - - - -
06/08:00pm 25.1 CALM 0 0 1008.2 - - - - - - - - -
06/07:30pm 24.9 CALM 0 0 1007.6 - - - - - - - - -
06/07:00pm 25.3 CALM 0 0 1007.1 - - - - - - - - -
06/06:30pm 25.6 W 1 3 1007.3 - - - - - - - - -
06/06:00pm 25.5 WNW 1 3 1006.8 - - - - - - - - -
06/05:30pm 25.2 CALM 0 0 1006.6 - - - - - - - - -
06/05:00pm 24.6 W 3 5 1006.5 - - - - - - - - -
06/04:00pm 30.7 NW 4 9 1006.4 - - - - - - - - -
06/03:30pm 31.3 NW 2 7 1006.6 - - - - - - - - -
06/03:00pm 32.0 NNW 2 4 1006.8 - - - - - - - - -
06/02:30pm 33.5 NNW 3 - 1007.3 - - - - - - - - -

Other Formats:

Comma delimited format used in spreadsheet applications
http://www.bom.gov.au/fwo/IDD60701/IDD60701.94119.axf

JavaScript Object Notation format (JSON) in row-major order
http://www.bom.gov.au/fwo/IDD60701/IDD60701.94119.json